sensor_id;sensor_type;location;lat;lon;timestamp;P1;durP1;ratioP1;P2;durP2;ratioP2
25950;SDS011;13748;52.240;6.002;2023-02-01T00:00:29;18.67;;;4.20;;
25950;SDS011;13748;52.240;6.002;2023-02-01T00:02:56;21.83;;;4.30;;
25950;SDS011;13748;52.240;6.002;2023-02-01T00:05:23;21.13;;;4.80;;
25950;SDS011;13748;52.240;6.002;2023-02-01T00:07:50;21.10;;;5.07;;
25950;SDS011;13748;52.240;6.002;2023-02-01T00:10:17;26.70;;;5.47;;
25950;SDS011;13748;52.240;6.002;2023-02-01T00:12:44;22.37;;;3.93;;
25950;SDS011;13748;52.240;6.002;2023-02-01T00:15:11;25.43;;;4.37;;
25950;SDS011;13748;52.240;6.002;2023-02-01T00:17:38;15.40;;;3.97;;
25950;SDS011;13748;52.240;6.002;2023-02-01T00:20:04;28.40;;;4.60;;
25950;SDS011;13748;52.240;6.002;2023-02-01T00:22:31;17.57;;;4.13;;
25950;SDS011;13748;52.240;6.002;2023-02-01T00:24:58;16.23;;;4.87;;
25950;SDS011;13748;52.240;6.002;2023-02-01T00:27:25;22.03;;;5.23;;
25950;SDS011;13748;52.240;6.002;2023-02-01T00:29:53;19.37;;;4.40;;
25950;SDS011;13748;52.240;6.002;2023-02-01T00:32:21;22.73;;;4.37;;
25950;SDS011;13748;52.240;6.002;2023-02-01T00:34:48;25.60;;;3.90;;
25950;SDS011;13748;52.240;6.002;2023-02-01T00:37:14;21.10;;;4.37;;
25950;SDS011;13748;52.240;6.002;2023-02-01T00:39:41;16.87;;;4.50;;
25950;SDS011;13748;52.240;6.002;2023-02-01T00:42:08;24.40;;;4.87;;
25950;SDS011;13748;52.240;6.002;2023-02-01T00:44:36;21.30;;;4.53;;
25950;SDS011;13748;52.240;6.002;2023-02-01T00:47:02;16.00;;;4.83;;
25950;SDS011;13748;52.240;6.002;2023-02-01T00:49:29;24.47;;;4.30;;
25950;SDS011;13748;52.240;6.002;2023-02-01T00:51:56;15.17;;;3.50;;
25950;SDS011;13748;52.240;6.002;2023-02-01T00:54:22;13.23;;;4.03;;
25950;SDS011;13748;52.240;6.002;2023-02-01T00:56:49;19.40;;;4.53;;
25950;SDS011;13748;52.240;6.002;2023-02-01T00:59:16;13.97;;;4.57;;
25950;SDS011;13748;52.240;6.002;2023-02-01T01:01:42;20.93;;;4.40;;
25950;SDS011;13748;52.240;6.002;2023-02-01T01:04:10;23.13;;;4.03;;
25950;SDS011;13748;52.240;6.002;2023-02-01T01:06:37;15.73;;;4.00;;
25950;SDS011;13748;52.240;6.002;2023-02-01T01:09:05;26.63;;;4.50;;
25950;SDS011;13748;52.240;6.002;2023-02-01T01:11:34;22.23;;;5.27;;
25950;SDS011;13748;52.240;6.002;2023-02-01T01:14:03;15.53;;;4.43;;
25950;SDS011;13748;52.240;6.002;2023-02-01T01:16:31;25.20;;;5.23;;
25950;SDS011;13748;52.240;6.002;2023-02-01T01:18:58;12.97;;;4.00;;
25950;SDS011;13748;52.240;6.002;2023-02-01T01:21:26;16.70;;;4.37;;
25950;SDS011;13748;52.240;6.002;2023-02-01T01:23:54;19.43;;;4.73;;
25950;SDS011;13748;52.240;6.002;2023-02-01T01:26:22;17.30;;;4.90;;
25950;SDS011;13748;52.240;6.002;2023-02-01T01:28:50;24.13;;;6.37;;
25950;SDS011;13748;52.240;6.002;2023-02-01T01:31:18;21.50;;;4.43;;
25950;SDS011;13748;52.240;6.002;2023-02-01T01:33:49;15.63;;;4.93;;
25950;SDS011;13748;52.240;6.002;2023-02-01T01:36:17;25.50;;;4.13;;
25950;SDS011;13748;52.240;6.002;2023-02-01T01:38:45;22.37;;;4.63;;
25950;SDS011;13748;52.240;6.002;2023-02-01T01:41:17;19.17;;;4.87;;
25950;SDS011;13748;52.240;6.002;2023-02-01T01:46:16;22.20;;;4.60;;
25950;SDS011;13748;52.240;6.002;2023-02-01T01:48:44;17.03;;;3.90;;
25950;SDS011;13748;52.240;6.002;2023-02-01T01:51:12;22.40;;;4.30;;
25950;SDS011;13748;52.240;6.002;2023-02-01T01:53:46;21.30;;;4.17;;
25950;SDS011;13748;52.240;6.002;2023-02-01T01:56:19;24.77;;;4.80;;
25950;SDS011;13748;52.240;6.002;2023-02-01T01:58:46;21.53;;;4.40;;
25950;SDS011;13748;52.240;6.002;2023-02-01T02:01:13;20.00;;;4.40;;
25950;SDS011;13748;52.240;6.002;2023-02-01T02:03:43;13.43;;;3.77;;
25950;SDS011;13748;52.240;6.002;2023-02-01T02:06:17;20.70;;;4.60;;
25950;SDS011;13748;52.240;6.002;2023-02-01T02:09:06;17.90;;;4.20;;
25950;SDS011;13748;52.240;6.002;2023-02-01T02:11:33;20.23;;;4.60;;
25950;SDS011;13748;52.240;6.002;2023-02-01T02:14:00;17.23;;;3.90;;
25950;SDS011;13748;52.240;6.002;2023-02-01T02:16:35;29.53;;;4.10;;
25950;SDS011;13748;52.240;6.002;2023-02-01T02:25:36;19.07;;;3.47;;
25950;SDS011;13748;52.240;6.002;2023-02-01T02:31:14;15.67;;;3.90;;
25950;SDS011;13748;52.240;6.002;2023-02-01T02:36:30;21.53;;;4.70;;
25950;SDS011;13748;52.240;6.002;2023-02-01T02:39:07;24.40;;;4.53;;
25950;SDS011;13748;52.240;6.002;2023-02-01T02:42:14;21.47;;;4.27;;
25950;SDS011;13748;52.240;6.002;2023-02-01T02:45:06;16.27;;;4.40;;
25950;SDS011;13748;52.240;6.002;2023-02-01T02:48:09;22.53;;;5.00;;
25950;SDS011;13748;52.240;6.002;2023-02-01T02:50:42;20.67;;;4.37;;
25950;SDS011;13748;52.240;6.002;2023-02-01T02:56:23;14.47;;;3.93;;
25950;SDS011;13748;52.240;6.002;2023-02-01T02:59:11;20.50;;;4.47;;
25950;SDS011;13748;52.240;6.002;2023-02-01T03:02:02;24.07;;;3.87;;
25950;SDS011;13748;52.240;6.002;2023-02-01T03:04:51;18.60;;;4.33;;
25950;SDS011;13748;52.240;6.002;2023-02-01T03:10:14;17.80;;;3.83;;
25950;SDS011;13748;52.240;6.002;2023-02-01T03:12:50;19.57;;;4.33;;
25950;SDS011;13748;52.240;6.002;2023-02-01T03:15:28;16.53;;;4.07;;
25950;SDS011;13748;52.240;6.002;2023-02-01T03:18:01;17.40;;;4.43;;
25950;SDS011;13748;52.240;6.002;2023-02-01T03:20:33;23.80;;;4.10;;
25950;SDS011;13748;52.240;6.002;2023-02-01T03:23:01;16.10;;;3.80;;
25950;SDS011;13748;52.240;6.002;2023-02-01T03:25:33;16.73;;;4.57;;
25950;SDS011;13748;52.240;6.002;2023-02-01T03:28:02;19.47;;;4.13;;
25950;SDS011;13748;52.240;6.002;2023-02-01T03:30:34;22.57;;;3.63;;
25950;SDS011;13748;52.240;6.002;2023-02-01T03:33:05;18.53;;;4.50;;
25950;SDS011;13748;52.240;6.002;2023-02-01T03:43:48;21.23;;;4.23;;
25950;SDS011;13748;52.240;6.002;2023-02-01T03:46:24;17.77;;;4.80;;
25950;SDS011;13748;52.240;6.002;2023-02-01T03:49:05;18.77;;;3.80;;
25950;SDS011;13748;52.240;6.002;2023-02-01T03:51:49;21.30;;;4.03;;
25950;SDS011;13748;52.240;6.002;2023-02-01T03:54:17;17.47;;;4.27;;
25950;SDS011;13748;52.240;6.002;2023-02-01T03:56:45;16.00;;;4.13;;
25950;SDS011;13748;52.240;6.002;2023-02-01T03:59:13;23.57;;;4.97;;
25950;SDS011;13748;52.240;6.002;2023-02-01T04:01:40;21.83;;;4.80;;
25950;SDS011;13748;52.240;6.002;2023-02-01T04:04:07;18.40;;;4.37;;
25950;SDS011;13748;52.240;6.002;2023-02-01T04:06:35;16.40;;;4.43;;
25950;SDS011;13748;52.240;6.002;2023-02-01T04:09:02;22.97;;;4.37;;
25950;SDS011;13748;52.240;6.002;2023-02-01T04:11:29;25.83;;;4.07;;
25950;SDS011;13748;52.240;6.002;2023-02-01T04:13:55;23.73;;;4.03;;
25950;SDS011;13748;52.240;6.002;2023-02-01T04:16:22;20.80;;;4.13;;
25950;SDS011;13748;52.240;6.002;2023-02-01T04:18:49;18.00;;;3.73;;
25950;SDS011;13748;52.240;6.002;2023-02-01T04:21:15;20.07;;;4.53;;
25950;SDS011;13748;52.240;6.002;2023-02-01T04:23:42;17.50;;;4.17;;
25950;SDS011;13748;52.240;6.002;2023-02-01T04:26:09;12.80;;;4.20;;
25950;SDS011;13748;52.240;6.002;2023-02-01T04:28:35;23.40;;;4.63;;
25950;SDS011;13748;52.240;6.002;2023-02-01T04:31:02;24.50;;;3.83;;
25950;SDS011;13748;52.240;6.002;2023-02-01T04:33:29;18.13;;;4.50;;
25950;SDS011;13748;52.240;6.002;2023-02-01T04:35:58;22.43;;;4.13;;
25950;SDS011;13748;52.240;6.002;2023-02-01T04:38:24;16.20;;;4.07;;
25950;SDS011;13748;52.240;6.002;2023-02-01T04:40:51;18.10;;;5.67;;
25950;SDS011;13748;52.240;6.002;2023-02-01T04:43:18;20.00;;;4.00;;
25950;SDS011;13748;52.240;6.002;2023-02-01T04:45:48;13.77;;;3.90;;
25950;SDS011;13748;52.240;6.002;2023-02-01T04:48:15;27.93;;;4.60;;
25950;SDS011;13748;52.240;6.002;2023-02-01T04:50:44;22.50;;;4.07;;
25950;SDS011;13748;52.240;6.002;2023-02-01T04:53:14;19.50;;;3.77;;
25950;SDS011;13748;52.240;6.002;2023-02-01T04:55:43;24.40;;;4.77;;
25950;SDS011;13748;52.240;6.002;2023-02-01T04:58:10;20.50;;;5.70;;
25950;SDS011;13748;52.240;6.002;2023-02-01T05:00:37;18.07;;;4.23;;
25950;SDS011;13748;52.240;6.002;2023-02-01T05:03:04;19.43;;;3.77;;
25950;SDS011;13748;52.240;6.002;2023-02-01T05:05:31;18.90;;;3.93;;
25950;SDS011;13748;52.240;6.002;2023-02-01T05:07:57;22.07;;;4.40;;
25950;SDS011;13748;52.240;6.002;2023-02-01T05:10:25;19.50;;;4.00;;
25950;SDS011;13748;52.240;6.002;2023-02-01T05:12:52;16.83;;;3.70;;
25950;SDS011;13748;52.240;6.002;2023-02-01T05:15:38;20.53;;;4.77;;
25950;SDS011;13748;52.240;6.002;2023-02-01T05:18:05;21.37;;;4.03;;
25950;SDS011;13748;52.240;6.002;2023-02-01T05:20:31;19.03;;;3.90;;
25950;SDS011;13748;52.240;6.002;2023-02-01T05:22:58;17.53;;;3.50;;
25950;SDS011;13748;52.240;6.002;2023-02-01T05:25:27;19.17;;;4.33;;
25950;SDS011;13748;52.240;6.002;2023-02-01T05:27:54;15.73;;;4.20;;
25950;SDS011;13748;52.240;6.002;2023-02-01T05:30:20;21.10;;;4.40;;
25950;SDS011;13748;52.240;6.002;2023-02-01T05:32:52;17.77;;;4.17;;
25950;SDS011;13748;52.240;6.002;2023-02-01T05:35:19;13.67;;;3.90;;
25950;SDS011;13748;52.240;6.002;2023-02-01T05:37:46;18.80;;;4.00;;
25950;SDS011;13748;52.240;6.002;2023-02-01T05:40:13;14.87;;;3.50;;
25950;SDS011;13748;52.240;6.002;2023-02-01T05:42:39;20.33;;;3.83;;
25950;SDS011;13748;52.240;6.002;2023-02-01T05:45:06;19.80;;;3.93;;
25950;SDS011;13748;52.240;6.002;2023-02-01T05:47:33;20.60;;;3.97;;
25950;SDS011;13748;52.240;6.002;2023-02-01T05:50:00;20.97;;;4.87;;
25950;SDS011;13748;52.240;6.002;2023-02-01T05:52:27;15.43;;;4.00;;
25950;SDS011;13748;52.240;6.002;2023-02-01T05:54:57;15.77;;;4.23;;
25950;SDS011;13748;52.240;6.002;2023-02-01T05:57:23;18.43;;;3.70;;
25950;SDS011;13748;52.240;6.002;2023-02-01T05:59:50;19.33;;;3.67;;
25950;SDS011;13748;52.240;6.002;2023-02-01T06:02:17;15.77;;;4.33;;
25950;SDS011;13748;52.240;6.002;2023-02-01T06:04:43;18.77;;;3.80;;
25950;SDS011;13748;52.240;6.002;2023-02-01T06:07:10;19.73;;;6.10;;
25950;SDS011;13748;52.240;6.002;2023-02-01T06:09:37;19.07;;;4.70;;
25950;SDS011;13748;52.240;6.002;2023-02-01T06:12:04;18.03;;;4.07;;
25950;SDS011;13748;52.240;6.002;2023-02-01T06:14:31;20.63;;;4.20;;
25950;SDS011;13748;52.240;6.002;2023-02-01T06:16:58;26.20;;;4.23;;
25950;SDS011;13748;52.240;6.002;2023-02-01T06:19:24;20.97;;;4.20;;
25950;SDS011;13748;52.240;6.002;2023-02-01T06:21:51;16.73;;;3.77;;
25950;SDS011;13748;52.240;6.002;2023-02-01T06:24:18;23.03;;;5.00;;
25950;SDS011;13748;52.240;6.002;2023-02-01T06:26:45;18.63;;;5.93;;
25950;SDS011;13748;52.240;6.002;2023-02-01T06:29:12;18.47;;;4.47;;
25950;SDS011;13748;52.240;6.002;2023-02-01T06:31:39;15.13;;;3.93;;
25950;SDS011;13748;52.240;6.002;2023-02-01T06:34:06;23.20;;;4.47;;
25950;SDS011;13748;52.240;6.002;2023-02-01T06:36:33;18.47;;;4.40;;
25950;SDS011;13748;52.240;6.002;2023-02-01T06:39:00;16.77;;;4.33;;
25950;SDS011;13748;52.240;6.002;2023-02-01T06:41:26;20.30;;;4.47;;
25950;SDS011;13748;52.240;6.002;2023-02-01T06:43:54;18.83;;;4.50;;
25950;SDS011;13748;52.240;6.002;2023-02-01T06:46:21;18.87;;;4.50;;
25950;SDS011;13748;52.240;6.002;2023-02-01T06:48:48;26.57;;;4.57;;
25950;SDS011;13748;52.240;6.002;2023-02-01T06:51:22;14.17;;;4.03;;
25950;SDS011;13748;52.240;6.002;2023-02-01T06:53:50;12.70;;;3.97;;
25950;SDS011;13748;52.240;6.002;2023-02-01T06:56:17;20.50;;;3.87;;
25950;SDS011;13748;52.240;6.002;2023-02-01T06:58:45;19.57;;;5.33;;
25950;SDS011;13748;52.240;6.002;2023-02-01T07:01:12;16.73;;;4.10;;
25950;SDS011;13748;52.240;6.002;2023-02-01T07:03:40;20.17;;;4.67;;
25950;SDS011;13748;52.240;6.002;2023-02-01T07:06:07;20.80;;;4.67;;
25950;SDS011;13748;52.240;6.002;2023-02-01T07:08:35;18.17;;;4.93;;
25950;SDS011;13748;52.240;6.002;2023-02-01T07:11:04;17.40;;;4.07;;
25950;SDS011;13748;52.240;6.002;2023-02-01T07:13:36;15.70;;;4.00;;
25950;SDS011;13748;52.240;6.002;2023-02-01T07:16:05;13.37;;;3.90;;
25950;SDS011;13748;52.240;6.002;2023-02-01T07:18:33;22.00;;;4.30;;
25950;SDS011;13748;52.240;6.002;2023-02-01T07:21:00;19.57;;;4.27;;
25950;SDS011;13748;52.240;6.002;2023-02-01T07:23:27;19.70;;;4.70;;
25950;SDS011;13748;52.240;6.002;2023-02-01T07:25:55;18.93;;;4.07;;
25950;SDS011;13748;52.240;6.002;2023-02-01T07:28:23;19.77;;;3.93;;
25950;SDS011;13748;52.240;6.002;2023-02-01T07:30:50;16.73;;;4.23;;
25950;SDS011;13748;52.240;6.002;2023-02-01T07:33:18;19.03;;;4.50;;
25950;SDS011;13748;52.240;6.002;2023-02-01T07:35:48;17.37;;;4.07;;
25950;SDS011;13748;52.240;6.002;2023-02-01T07:38:16;17.70;;;4.67;;
25950;SDS011;13748;52.240;6.002;2023-02-01T07:40:43;18.73;;;4.00;;
25950;SDS011;13748;52.240;6.002;2023-02-01T07:43:09;18.97;;;3.90;;
25950;SDS011;13748;52.240;6.002;2023-02-01T07:45:37;17.90;;;4.37;;
25950;SDS011;13748;52.240;6.002;2023-02-01T07:48:04;17.83;;;3.97;;
25950;SDS011;13748;52.240;6.002;2023-02-01T07:50:30;13.07;;;4.00;;
25950;SDS011;13748;52.240;6.002;2023-02-01T07:53:01;13.93;;;3.63;;
25950;SDS011;13748;52.240;6.002;2023-02-01T07:55:28;26.33;;;5.10;;
25950;SDS011;13748;52.240;6.002;2023-02-01T07:57:58;24.43;;;4.57;;
25950;SDS011;13748;52.240;6.002;2023-02-01T08:00:25;14.33;;;3.70;;
25950;SDS011;13748;52.240;6.002;2023-02-01T08:03:11;14.37;;;4.40;;
25950;SDS011;13748;52.240;6.002;2023-02-01T08:05:37;14.50;;;4.17;;
25950;SDS011;13748;52.240;6.002;2023-02-01T08:08:04;18.03;;;4.20;;
25950;SDS011;13748;52.240;6.002;2023-02-01T08:10:32;20.50;;;3.70;;
25950;SDS011;13748;52.240;6.002;2023-02-01T08:13:01;18.40;;;5.23;;
25950;SDS011;13748;52.240;6.002;2023-02-01T08:15:29;22.00;;;5.53;;
25950;SDS011;13748;52.240;6.002;2023-02-01T08:17:56;21.17;;;5.50;;
25950;SDS011;13748;52.240;6.002;2023-02-01T08:20:24;22.83;;;4.93;;
25950;SDS011;13748;52.240;6.002;2023-02-01T08:22:54;19.83;;;4.23;;
25950;SDS011;13748;52.240;6.002;2023-02-01T08:25:21;24.63;;;3.93;;
25950;SDS011;13748;52.240;6.002;2023-02-01T08:27:49;21.43;;;4.80;;
25950;SDS011;13748;52.240;6.002;2023-02-01T08:30:16;22.13;;;4.23;;
25950;SDS011;13748;52.240;6.002;2023-02-01T08:32:43;20.10;;;4.37;;
25950;SDS011;13748;52.240;6.002;2023-02-01T08:35:10;17.07;;;4.60;;
25950;SDS011;13748;52.240;6.002;2023-02-01T08:37:36;16.10;;;3.93;;
25950;SDS011;13748;52.240;6.002;2023-02-01T08:40:03;17.47;;;4.57;;
25950;SDS011;13748;52.240;6.002;2023-02-01T08:42:31;19.87;;;4.63;;
25950;SDS011;13748;52.240;6.002;2023-02-01T08:45:17;19.50;;;4.37;;
25950;SDS011;13748;52.240;6.002;2023-02-01T08:47:45;16.50;;;4.60;;
25950;SDS011;13748;52.240;6.002;2023-02-01T08:50:13;20.90;;;4.57;;
25950;SDS011;13748;52.240;6.002;2023-02-01T08:52:40;17.57;;;4.23;;
25950;SDS011;13748;52.240;6.002;2023-02-01T08:55:07;13.53;;;3.97;;
25950;SDS011;13748;52.240;6.002;2023-02-01T08:57:34;16.63;;;4.83;;
25950;SDS011;13748;52.240;6.002;2023-02-01T09:00:02;19.90;;;4.73;;
25950;SDS011;13748;52.240;6.002;2023-02-01T09:02:30;22.83;;;4.50;;
25950;SDS011;13748;52.240;6.002;2023-02-01T09:04:57;22.33;;;4.10;;
25950;SDS011;13748;52.240;6.002;2023-02-01T09:07:25;18.97;;;4.03;;
25950;SDS011;13748;52.240;6.002;2023-02-01T09:09:52;23.17;;;4.10;;
25950;SDS011;13748;52.240;6.002;2023-02-01T09:12:20;16.10;;;4.10;;
25950;SDS011;13748;52.240;6.002;2023-02-01T09:14:47;13.27;;;3.57;;
25950;SDS011;13748;52.240;6.002;2023-02-01T09:17:14;18.23;;;4.20;;
25950;SDS011;13748;52.240;6.002;2023-02-01T09:19:41;13.83;;;3.80;;
25950;SDS011;13748;52.240;6.002;2023-02-01T09:22:08;18.30;;;4.07;;
25950;SDS011;13748;52.240;6.002;2023-02-01T09:24:35;15.60;;;3.53;;
25950;SDS011;13748;52.240;6.002;2023-02-01T09:27:01;21.03;;;4.37;;
25950;SDS011;13748;52.240;6.002;2023-02-01T09:29:28;16.17;;;3.50;;
25950;SDS011;13748;52.240;6.002;2023-02-01T09:31:55;20.90;;;4.80;;
25950;SDS011;13748;52.240;6.002;2023-02-01T09:34:29;25.37;;;4.77;;
25950;SDS011;13748;52.240;6.002;2023-02-01T09:36:57;15.87;;;3.50;;
25950;SDS011;13748;52.240;6.002;2023-02-01T09:39:23;14.63;;;4.50;;
25950;SDS011;13748;52.240;6.002;2023-02-01T09:41:58;18.53;;;3.93;;
25950;SDS011;13748;52.240;6.002;2023-02-01T09:47:27;19.10;;;4.37;;
25950;SDS011;13748;52.240;6.002;2023-02-01T09:52:29;15.20;;;4.27;;
25950;SDS011;13748;52.240;6.002;2023-02-01T09:55:22;18.00;;;3.90;;
25950;SDS011;13748;52.240;6.002;2023-02-01T09:57:55;18.40;;;4.43;;
25950;SDS011;13748;52.240;6.002;2023-02-01T10:00:30;14.57;;;3.90;;
25950;SDS011;13748;52.240;6.002;2023-02-01T10:03:01;22.20;;;3.60;;
25950;SDS011;13748;52.240;6.002;2023-02-01T10:05:38;14.33;;;3.83;;
25950;SDS011;13748;52.240;6.002;2023-02-01T10:11:12;16.20;;;4.67;;
25950;SDS011;13748;52.240;6.002;2023-02-01T10:13:47;19.77;;;3.87;;
25950;SDS011;13748;52.240;6.002;2023-02-01T10:16:47;20.37;;;3.93;;
25950;SDS011;13748;52.240;6.002;2023-02-01T10:19:34;20.23;;;4.67;;
25950;SDS011;13748;52.240;6.002;2023-02-01T10:22:23;13.80;;;3.80;;
25950;SDS011;13748;52.240;6.002;2023-02-01T10:28:14;15.80;;;3.60;;
25950;SDS011;13748;52.240;6.002;2023-02-01T10:30:44;14.67;;;4.53;;
25950;SDS011;13748;52.240;6.002;2023-02-01T10:33:56;14.33;;;3.23;;
25950;SDS011;13748;52.240;6.002;2023-02-01T10:38:40;14.67;;;3.67;;
25950;SDS011;13748;52.240;6.002;2023-02-01T10:41:14;17.40;;;4.13;;
25950;SDS011;13748;52.240;6.002;2023-02-01T10:43:44;12.97;;;4.10;;
25950;SDS011;13748;52.240;6.002;2023-02-01T10:46:14;17.33;;;4.17;;
25950;SDS011;13748;52.240;6.002;2023-02-01T10:48:42;17.40;;;3.83;;
25950;SDS011;13748;52.240;6.002;2023-02-01T10:51:29;16.17;;;4.73;;
25950;SDS011;13748;52.240;6.002;2023-02-01T10:54:10;15.17;;;4.60;;
25950;SDS011;13748;52.240;6.002;2023-02-01T10:56:47;16.60;;;4.40;;
25950;SDS011;13748;52.240;6.002;2023-02-01T10:59:18;21.30;;;4.43;;
25950;SDS011;13748;52.240;6.002;2023-02-01T11:01:47;14.20;;;4.57;;
25950;SDS011;13748;52.240;6.002;2023-02-01T11:04:17;17.97;;;4.37;;
25950;SDS011;13748;52.240;6.002;2023-02-01T11:06:47;29.90;;;4.83;;
25950;SDS011;13748;52.240;6.002;2023-02-01T11:09:19;22.20;;;4.50;;
25950;SDS011;13748;52.240;6.002;2023-02-01T11:14:19;19.50;;;4.40;;
25950;SDS011;13748;52.240;6.002;2023-02-01T11:16:53;14.27;;;3.93;;
25950;SDS011;13748;52.240;6.002;2023-02-01T11:19:23;22.47;;;4.57;;
25950;SDS011;13748;52.240;6.002;2023-02-01T11:21:50;22.00;;;4.17;;
25950;SDS011;13748;52.240;6.002;2023-02-01T11:24:52;23.03;;;4.60;;
25950;SDS011;13748;52.240;6.002;2023-02-01T11:27:13;22.50;;;4.10;;
25950;SDS011;13748;52.240;6.002;2023-02-01T11:29:53;22.93;;;5.17;;
25950;SDS011;13748;52.240;6.002;2023-02-01T11:32:23;23.07;;;4.97;;
25950;SDS011;13748;52.240;6.002;2023-02-01T11:34:55;19.37;;;4.53;;
25950;SDS011;13748;52.240;6.002;2023-02-01T11:37:37;22.63;;;3.67;;
25950;SDS011;13748;52.240;6.002;2023-02-01T11:42:59;21.83;;;4.43;;
25950;SDS011;13748;52.240;6.002;2023-02-01T11:45:38;19.23;;;4.13;;
25950;SDS011;13748;52.240;6.002;2023-02-01T11:48:09;16.87;;;4.17;;
25950;SDS011;13748;52.240;6.002;2023-02-01T11:53:45;17.33;;;3.43;;
25950;SDS011;13748;52.240;6.002;2023-02-01T11:59:02;17.67;;;4.63;;
25950;SDS011;13748;52.240;6.002;2023-02-01T12:01:37;20.77;;;4.37;;
25950;SDS011;13748;52.240;6.002;2023-02-01T12:07:45;22.13;;;4.10;;
25950;SDS011;13748;52.240;6.002;2023-02-01T12:15:52;21.87;;;4.23;;
25950;SDS011;13748;52.240;6.002;2023-02-01T12:18:49;18.63;;;3.97;;
25950;SDS011;13748;52.240;6.002;2023-02-01T12:46:52;19.37;;;3.40;;
25950;SDS011;13748;52.240;6.002;2023-02-01T12:49:45;15.30;;;3.83;;
25950;SDS011;13748;52.240;6.002;2023-02-01T12:52:57;19.03;;;4.13;;
25950;SDS011;13748;52.240;6.002;2023-02-01T12:55:09;20.33;;;4.63;;
25950;SDS011;13748;52.240;6.002;2023-02-01T12:57:51;15.87;;;4.13;;
25950;SDS011;13748;52.240;6.002;2023-02-01T13:00:23;15.97;;;4.47;;
25950;SDS011;13748;52.240;6.002;2023-02-01T13:03:07;18.43;;;3.87;;
25950;SDS011;13748;52.240;6.002;2023-02-01T13:05:52;21.03;;;4.53;;
25950;SDS011;13748;52.240;6.002;2023-02-01T13:14:02;18.20;;;4.17;;
25950;SDS011;13748;52.240;6.002;2023-02-01T13:16:50;20.60;;;4.73;;
25950;SDS011;13748;52.240;6.002;2023-02-01T13:22:40;23.43;;;4.90;;
25950;SDS011;13748;52.240;6.002;2023-02-01T13:27:39;17.30;;;3.97;;
25950;SDS011;13748;52.240;6.002;2023-02-01T13:30:16;20.80;;;5.20;;
25950;SDS011;13748;52.240;6.002;2023-02-01T13:36:24;19.50;;;3.80;;
25950;SDS011;13748;52.240;6.002;2023-02-01T13:42:03;18.37;;;4.20;;
25950;SDS011;13748;52.240;6.002;2023-02-01T13:44:43;20.87;;;5.03;;
25950;SDS011;13748;52.240;6.002;2023-02-01T13:47:24;26.50;;;4.40;;
25950;SDS011;13748;52.240;6.002;2023-02-01T13:50:00;23.17;;;5.43;;
25950;SDS011;13748;52.240;6.002;2023-02-01T13:52:39;27.07;;;5.70;;
25950;SDS011;13748;52.240;6.002;2023-02-01T13:57:40;21.13;;;4.00;;
25950;SDS011;13748;52.240;6.002;2023-02-01T14:08:09;21.57;;;4.33;;
25950;SDS011;13748;52.240;6.002;2023-02-01T14:26:23;29.37;;;6.33;;
25950;SDS011;13748;52.240;6.002;2023-02-01T14:32:03;22.83;;;6.07;;
25950;SDS011;13748;52.240;6.002;2023-02-01T14:50:34;26.87;;;7.03;;
25950;SDS011;13748;52.240;6.002;2023-02-01T14:53:20;23.07;;;6.27;;
25950;SDS011;13748;52.240;6.002;2023-02-01T15:01:17;29.10;;;4.63;;
25950;SDS011;13748;52.240;6.002;2023-02-01T15:04:11;28.27;;;5.53;;
25950;SDS011;13748;52.240;6.002;2023-02-01T15:06:45;20.97;;;4.27;;
25950;SDS011;13748;52.240;6.002;2023-02-01T15:09:19;20.13;;;5.27;;
25950;SDS011;13748;52.240;6.002;2023-02-01T15:14:42;20.33;;;4.10;;
25950;SDS011;13748;52.240;6.002;2023-02-01T15:17:19;16.23;;;4.30;;
25950;SDS011;13748;52.240;6.002;2023-02-01T15:19:52;15.30;;;4.13;;
25950;SDS011;13748;52.240;6.002;2023-02-01T15:22:20;17.47;;;3.60;;
25950;SDS011;13748;52.240;6.002;2023-02-01T15:24:54;19.33;;;4.57;;
25950;SDS011;13748;52.240;6.002;2023-02-01T15:27:23;21.10;;;4.27;;
25950;SDS011;13748;52.240;6.002;2023-02-01T15:29:50;18.97;;;5.37;;
25950;SDS011;13748;52.240;6.002;2023-02-01T15:32:33;18.97;;;4.00;;
25950;SDS011;13748;52.240;6.002;2023-02-01T15:35:04;12.23;;;2.77;;
25950;SDS011;13748;52.240;6.002;2023-02-01T15:37:32;12.30;;;2.67;;
25950;SDS011;13748;52.240;6.002;2023-02-01T15:42:40;3.43;;;1.70;;
25950;SDS011;13748;52.240;6.002;2023-02-01T15:45:31;5.33;;;1.90;;
25950;SDS011;13748;52.240;6.002;2023-02-01T15:47:59;5.60;;;2.37;;
25950;SDS011;13748;52.240;6.002;2023-02-01T15:50:26;9.10;;;1.57;;
25950;SDS011;13748;52.240;6.002;2023-02-01T15:52:56;4.80;;;1.37;;
25950;SDS011;13748;52.240;6.002;2023-02-01T15:55:34;5.17;;;1.77;;
25950;SDS011;13748;52.240;6.002;2023-02-01T15:58:13;7.73;;;1.50;;
25950;SDS011;13748;52.240;6.002;2023-02-01T16:00:46;4.80;;;1.67;;
25950;SDS011;13748;52.240;6.002;2023-02-01T16:03:33;5.97;;;1.37;;
25950;SDS011;13748;52.240;6.002;2023-02-01T16:06:12;6.20;;;1.87;;
25950;SDS011;13748;52.240;6.002;2023-02-01T16:08:54;4.80;;;1.73;;
25950;SDS011;13748;52.240;6.002;2023-02-01T16:13:58;9.60;;;3.00;;
25950;SDS011;13748;52.240;6.002;2023-02-01T16:16:27;7.53;;;3.53;;
25950;SDS011;13748;52.240;6.002;2023-02-01T16:18:54;15.17;;;4.63;;
25950;SDS011;13748;52.240;6.002;2023-02-01T16:21:21;6.77;;;3.13;;
25950;SDS011;13748;52.240;6.002;2023-02-01T16:23:52;13.43;;;4.13;;
25950;SDS011;13748;52.240;6.002;2023-02-01T16:26:19;10.53;;;4.20;;
25950;SDS011;13748;52.240;6.002;2023-02-01T16:28:47;14.23;;;5.20;;
25950;SDS011;13748;52.240;6.002;2023-02-01T16:31:17;10.43;;;4.40;;
25950;SDS011;13748;52.240;6.002;2023-02-01T16:33:49;14.13;;;4.13;;
25950;SDS011;13748;52.240;6.002;2023-02-01T16:36:17;16.30;;;6.67;;
25950;SDS011;13748;52.240;6.002;2023-02-01T16:38:45;23.20;;;7.43;;
25950;SDS011;13748;52.240;6.002;2023-02-01T16:41:14;15.10;;;5.90;;
25950;SDS011;13748;52.240;6.002;2023-02-01T16:43:42;26.63;;;5.60;;
25950;SDS011;13748;52.240;6.002;2023-02-01T16:46:14;19.43;;;6.40;;
25950;SDS011;13748;52.240;6.002;2023-02-01T16:48:43;20.40;;;6.33;;
25950;SDS011;13748;52.240;6.002;2023-02-01T16:51:15;21.90;;;6.40;;
25950;SDS011;13748;52.240;6.002;2023-02-01T16:53:43;20.50;;;7.43;;
25950;SDS011;13748;52.240;6.002;2023-02-01T16:56:24;20.63;;;6.30;;
25950;SDS011;13748;52.240;6.002;2023-02-01T16:58:57;18.03;;;4.17;;
25950;SDS011;13748;52.240;6.002;2023-02-01T17:01:24;18.70;;;4.57;;
25950;SDS011;13748;52.240;6.002;2023-02-01T17:03:51;20.27;;;3.97;;
25950;SDS011;13748;52.240;6.002;2023-02-01T17:06:21;26.00;;;4.90;;
25950;SDS011;13748;52.240;6.002;2023-02-01T17:08:51;13.67;;;3.57;;
25950;SDS011;13748;52.240;6.002;2023-02-01T17:11:26;13.60;;;3.33;;
25950;SDS011;13748;52.240;6.002;2023-02-01T17:13:53;11.80;;;3.67;;
25950;SDS011;13748;52.240;6.002;2023-02-01T17:16:28;20.50;;;4.20;;
25950;SDS011;13748;52.240;6.002;2023-02-01T17:21:27;14.80;;;2.77;;
25950;SDS011;13748;52.240;6.002;2023-02-01T17:23:55;11.10;;;3.00;;
25950;SDS011;13748;52.240;6.002;2023-02-01T17:26:25;10.93;;;2.90;;
25950;SDS011;13748;52.240;6.002;2023-02-01T17:28:51;9.33;;;3.17;;
25950;SDS011;13748;52.240;6.002;2023-02-01T17:31:18;15.13;;;3.10;;
25950;SDS011;13748;52.240;6.002;2023-02-01T17:33:45;9.77;;;3.13;;
25950;SDS011;13748;52.240;6.002;2023-02-01T17:36:13;8.50;;;3.00;;
25950;SDS011;13748;52.240;6.002;2023-02-01T17:38:41;9.07;;;3.40;;
25950;SDS011;13748;52.240;6.002;2023-02-01T17:41:19;9.20;;;2.73;;
25950;SDS011;13748;52.240;6.002;2023-02-01T17:43:46;16.00;;;4.00;;
25950;SDS011;13748;52.240;6.002;2023-02-01T17:46:15;16.67;;;4.63;;